createdAt,value
2023-05-21T00:01:30.369Z,15.41
2023-05-21T00:04:00.100Z,15.41
2023-05-21T00:06:28.590Z,15.43
2023-05-21T00:08:56.923Z,15.41
2023-05-21T00:11:25.366Z,15.40
2023-05-21T00:13:53.574Z,15.40
2023-05-21T00:16:22.313Z,15.41
2023-05-21T00:18:54.635Z,15.40
2023-05-21T00:21:23.323Z,15.38
2023-05-21T00:23:51.531Z,15.37
2023-05-21T00:26:19.815Z,15.38
2023-05-21T00:28:48.000Z,15.36
2023-05-21T00:31:17.349Z,15.34
2023-05-21T00:33:45.649Z,15.36
2023-05-21T00:36:15.612Z,15.36
2023-05-21T00:38:45.906Z,15.34
2023-05-21T00:41:14.610Z,15.35
2023-05-21T00:43:44.644Z,15.34
2023-05-21T00:46:16.813Z,15.33
2023-05-21T00:48:46.490Z,15.29
2023-05-21T00:51:18.709Z,15.28
2023-05-21T00:53:47.934Z,15.27
2023-05-21T00:56:16.166Z,15.24
2023-05-21T00:58:44.500Z,15.21
2023-05-21T01:01:14.222Z,15.21
2023-05-21T01:03:43.414Z,15.21
2023-05-21T01:06:14.161Z,15.19
2023-05-21T01:08:44.274Z,15.21
2023-05-21T01:11:12.966Z,15.22
2023-05-21T01:13:43.351Z,15.21
2023-05-21T01:16:13.693Z,15.20
2023-05-21T01:18:43.817Z,15.18
2023-05-21T01:21:12.506Z,15.17
2023-05-21T01:23:42.250Z,15.15
2023-05-21T01:26:13.123Z,15.15
2023-05-21T01:28:42.265Z,15.13
2023-05-21T01:31:20.793Z,15.11
2023-05-21T01:33:51.365Z,15.11
2023-05-21T01:36:26.437Z,15.12
2023-05-21T01:39:02.194Z,15.13
2023-05-21T01:41:33.458Z,15.09
2023-05-21T01:44:03.456Z,15.11
2023-05-21T01:46:34.752Z,15.10
2023-05-21T01:49:04.054Z,15.09
2023-05-21T01:51:32.730Z,15.07
2023-05-21T01:54:02.871Z,15.08
2023-05-21T01:56:34.087Z,15.08
2023-05-21T01:59:02.378Z,15.06
2023-05-21T02:01:30.795Z,15.03
2023-05-21T02:03:59.537Z,15.02
2023-05-21T02:06:27.928Z,15.01
2023-05-21T02:08:56.723Z,14.98
2023-05-21T02:11:26.479Z,14.95
2023-05-21T02:13:54.748Z,14.95
2023-05-21T02:16:22.948Z,14.95
2023-05-21T02:18:53.871Z,14.97
2023-05-21T02:21:22.307Z,14.97
2023-05-21T02:23:50.647Z,14.93
2023-05-21T02:26:19.002Z,14.93
2023-05-21T02:28:48.761Z,14.89
2023-05-21T02:31:17.120Z,14.86
2023-05-21T02:33:45.324Z,14.82
2023-05-21T02:36:15.529Z,14.81
2023-05-21T02:38:43.979Z,14.83
2023-05-21T02:41:12.547Z,14.81
2023-05-21T02:43:41.125Z,14.79
2023-05-21T02:46:10.741Z,14.78
2023-05-21T02:48:38.988Z,14.75
2023-05-21T02:51:07.351Z,14.71
2023-05-21T02:53:35.912Z,14.68
2023-05-21T02:56:04.226Z,14.67
2023-05-21T02:58:33.425Z,14.69
2023-05-21T03:01:01.736Z,14.66
2023-05-21T03:03:32.601Z,14.66
2023-05-21T03:06:00.977Z,14.64
2023-05-21T03:08:29.126Z,14.63
2023-05-21T03:10:57.428Z,14.63
2023-05-21T03:13:25.738Z,14.61
2023-05-21T03:15:56.574Z,14.58
2023-05-21T03:18:25.342Z,14.56
2023-05-21T03:20:54.932Z,14.59
2023-05-21T03:23:23.279Z,14.57
2023-05-21T03:25:52.131Z,14.59
2023-05-21T03:28:20.457Z,14.58
2023-05-21T03:30:49.785Z,14.56
2023-05-21T03:33:18.600Z,14.50
2023-05-21T03:35:47.096Z,14.51
2023-05-21T03:38:16.734Z,14.48
2023-05-21T03:40:45.107Z,14.48
2023-05-21T03:43:13.275Z,14.46
2023-05-21T03:45:44.211Z,14.45
2023-05-21T03:48:12.780Z,14.42
2023-05-21T03:50:41.629Z,14.42
2023-05-21T03:53:10.964Z,14.39
2023-05-21T03:55:40.659Z,14.37
2023-05-21T03:58:09.698Z,14.35
2023-05-21T04:00:38.302Z,14.32
2023-05-21T04:03:07.346Z,14.32
2023-05-21T04:05:35.984Z,14.31
2023-05-21T04:08:04.533Z,14.28
2023-05-21T04:10:32.782Z,14.26
2023-05-21T04:13:02.499Z,14.27
2023-05-21T04:15:30.690Z,14.29
2023-05-21T04:17:59.020Z,14.29
2023-05-21T04:20:27.170Z,14.31
2023-05-21T04:22:55.483Z,14.31
2023-05-21T04:25:23.969Z,14.36
2023-05-21T04:27:52.725Z,14.36
2023-05-21T04:30:24.228Z,14.35
2023-05-21T04:32:52.894Z,14.34
2023-05-21T04:35:21.216Z,14.39
2023-05-21T04:37:49.393Z,14.38
2023-05-21T04:40:18.463Z,14.41
2023-05-21T04:42:48.528Z,14.42
2023-05-21T04:45:17.864Z,14.43
2023-05-21T04:47:48.033Z,14.47
2023-05-21T04:50:16.344Z,14.48
2023-05-21T04:52:45.713Z,14.51
2023-05-21T04:55:14.006Z,14.52
2023-05-21T04:57:42.223Z,14.54
2023-05-21T05:00:11.764Z,14.56
2023-05-21T05:02:40.201Z,14.59
2023-05-21T05:05:10.733Z,14.62
2023-05-21T05:07:38.992Z,14.67
2023-05-21T05:10:08.247Z,14.71
2023-05-21T05:12:36.518Z,14.75
2023-05-21T05:15:05.233Z,14.79
2023-05-21T05:17:34.895Z,14.80
2023-05-21T05:20:03.862Z,14.84
2023-05-21T05:22:33.576Z,14.87
2023-05-21T05:25:01.799Z,14.88
2023-05-21T05:27:30.030Z,14.90
2023-05-21T05:29:58.358Z,14.95
2023-05-21T05:32:26.600Z,14.95
2023-05-21T05:34:54.937Z,14.99
2023-05-21T05:37:23.277Z,14.99
2023-05-21T05:39:53.192Z,15.00
2023-05-21T05:42:21.415Z,15.01
2023-05-21T05:44:49.698Z,15.01
2023-05-21T05:47:18.284Z,15.03
2023-05-21T05:49:46.486Z,15.05
2023-05-21T05:52:14.897Z,15.09
2023-05-21T05:54:43.262Z,15.11
2023-05-21T05:57:13.066Z,15.13
2023-05-21T05:59:41.349Z,15.23
2023-05-21T06:02:09.690Z,15.18
2023-05-21T06:04:37.933Z,15.17
2023-05-21T06:07:06.617Z,15.18
2023-05-21T06:09:34.928Z,15.19
2023-05-21T06:12:03.269Z,15.21
2023-05-21T06:14:32.962Z,15.21
2023-05-21T06:17:01.252Z,15.22
2023-05-21T06:19:29.863Z,15.26
2023-05-21T06:21:58.291Z,15.28
2023-05-21T06:24:26.929Z,15.32
2023-05-21T06:26:55.873Z,15.36
2023-05-21T06:29:24.135Z,15.41
2023-05-21T06:31:53.772Z,15.43
2023-05-21T06:34:22.029Z,15.48
2023-05-21T06:36:50.252Z,15.48
2023-05-21T06:39:18.417Z,15.52
2023-05-21T06:41:46.786Z,15.55
2023-05-21T06:44:16.401Z,15.59
2023-05-21T06:46:44.593Z,15.63
2023-05-21T06:49:15.225Z,15.65
2023-05-21T06:51:43.523Z,15.67
2023-05-21T06:54:11.734Z,15.70
2023-05-21T06:56:39.951Z,15.73
2023-05-21T06:59:08.221Z,15.74
2023-05-21T07:01:36.562Z,15.76
2023-05-21T07:04:04.915Z,15.76
2023-05-21T07:06:35.149Z,15.81
2023-05-21T07:09:03.618Z,15.79
2023-05-21T07:11:32.471Z,15.81
2023-05-21T07:14:01.778Z,15.82
2023-05-21T07:16:30.173Z,15.86
2023-05-21T07:18:58.389Z,15.90
2023-05-21T07:21:26.663Z,15.97
2023-05-21T07:23:56.853Z,15.95
2023-05-21T07:26:26.386Z,16.00
2023-05-21T07:28:54.672Z,16.04
2023-05-21T07:31:23.089Z,16.19
2023-05-21T07:33:51.341Z,16.28
2023-05-21T07:36:19.669Z,16.35
2023-05-21T07:38:47.856Z,16.40
2023-05-21T07:41:18.833Z,16.44
2023-05-21T07:43:47.313Z,16.48
2023-05-21T07:46:15.630Z,16.48
2023-05-21T07:48:44.165Z,16.51
2023-05-21T07:51:12.821Z,16.54
2023-05-21T07:53:41.239Z,16.57
2023-05-21T07:56:09.733Z,16.58
2023-05-21T07:58:39.562Z,16.64
2023-05-21T08:01:07.814Z,16.69
2023-05-21T08:03:36.140Z,16.78
2023-05-21T08:06:04.967Z,16.88
2023-05-21T08:08:33.280Z,16.93
2023-05-21T08:11:01.993Z,16.99
2023-05-21T08:13:30.255Z,17.05
2023-05-21T08:16:00.036Z,17.14
2023-05-21T08:18:28.675Z,17.19
2023-05-21T08:20:56.893Z,17.25
2023-05-21T08:23:25.138Z,17.29
2023-05-21T08:25:53.785Z,17.41
2023-05-21T08:28:23.349Z,17.54
2023-05-21T08:30:51.609Z,17.59
2023-05-21T08:33:21.647Z,17.66
2023-05-21T08:35:50.009Z,17.68
2023-05-21T08:38:18.257Z,17.65
2023-05-21T08:40:47.915Z,17.66
2023-05-21T08:43:17.409Z,17.68
2023-05-21T08:45:47.972Z,17.68
2023-05-21T08:48:17.922Z,17.66
2023-05-21T08:50:48.190Z,17.68
2023-05-21T08:53:27.357Z,17.67
2023-05-21T08:55:57.574Z,17.65
2023-05-21T08:58:26.160Z,17.65
2023-05-21T09:00:56.328Z,17.65
2023-05-21T09:03:25.521Z,17.66
2023-05-21T09:05:55.526Z,17.62
2023-05-21T09:08:31.308Z,17.57
2023-05-21T09:10:59.558Z,17.56
2023-05-21T09:13:28.786Z,17.47
2023-05-21T09:15:57.540Z,17.41
2023-05-21T09:18:27.614Z,17.39
2023-05-21T09:20:57.807Z,17.37
2023-05-21T09:23:26.087Z,17.32
2023-05-21T09:25:54.469Z,17.30
2023-05-21T09:28:23.371Z,17.26
2023-05-21T09:30:54.455Z,17.21
2023-05-21T09:33:27.020Z,17.15
2023-05-21T09:35:56.949Z,17.11
2023-05-21T09:38:26.031Z,17.08
2023-05-21T09:40:56.818Z,17.02
2023-05-21T09:43:25.328Z,17.00
2023-05-21T09:45:56.126Z,17.01
2023-05-21T09:48:43.297Z,17.01
2023-05-21T09:51:16.265Z,17.04
2023-05-21T09:53:46.098Z,17.06
2023-05-21T09:56:14.429Z,17.07
2023-05-21T09:58:42.813Z,17.02
2023-05-21T10:01:12.527Z,16.98
2023-05-21T10:03:41.702Z,16.82
2023-05-21T10:06:10.649Z,16.76
2023-05-21T10:08:46.266Z,16.77
2023-05-21T10:11:15.657Z,16.71
2023-05-21T10:13:50.396Z,16.70
2023-05-21T10:16:19.500Z,16.69
2023-05-21T10:18:49.753Z,16.73
2023-05-21T10:21:19.501Z,16.75
2023-05-21T10:23:50.078Z,16.80
2023-05-21T10:26:19.890Z,16.83
2023-05-21T10:28:48.201Z,16.86
2023-05-21T10:31:16.819Z,16.92
2023-05-21T10:33:45.150Z,16.94
2023-05-21T10:36:14.020Z,16.97
2023-05-21T10:38:43.707Z,16.98
2023-05-21T10:41:14.564Z,17.01
2023-05-21T10:43:51.904Z,17.02
2023-05-21T10:46:49.871Z,17.04
2023-05-21T10:49:39.863Z,17.14
2023-05-21T10:52:16.901Z,17.16
2023-05-21T10:55:17.867Z,17.27
2023-05-21T10:58:12.260Z,17.34
2023-05-21T11:00:40.992Z,17.40
2023-05-21T11:03:10.102Z,17.48
2023-05-21T11:05:42.362Z,17.63
2023-05-21T11:08:27.606Z,17.76
2023-05-21T11:10:58.338Z,17.87
2023-05-21T11:13:31.442Z,17.90
2023-05-21T11:16:09.386Z,17.97
2023-05-21T11:19:02.911Z,18.00
2023-05-21T11:21:35.125Z,18.03
2023-05-21T11:24:06.667Z,18.01
2023-05-21T11:27:07.152Z,18.11
2023-05-21T11:29:41.840Z,18.12
2023-05-21T11:32:10.820Z,18.13
2023-05-21T11:34:40.883Z,18.14
2023-05-21T11:37:30.421Z,18.12
2023-05-21T11:40:00.433Z,18.20
2023-05-21T11:42:34.125Z,18.23
2023-05-21T11:45:04.884Z,18.26
2023-05-21T11:47:34.049Z,18.30
2023-05-21T11:50:03.732Z,18.37
2023-05-21T11:52:33.283Z,18.37
2023-05-21T11:55:01.763Z,18.43
2023-05-21T11:57:32.065Z,18.43
2023-05-21T12:00:01.618Z,18.37
2023-05-21T12:02:33.188Z,18.33
2023-05-21T12:05:01.858Z,18.28
2023-05-21T12:07:31.381Z,18.28
2023-05-21T12:10:00.206Z,18.23
2023-05-21T12:12:35.553Z,18.29
2023-05-21T12:15:15.063Z,18.39
2023-05-21T12:17:44.824Z,18.47
2023-05-21T12:20:17.251Z,18.61
2023-05-21T12:22:45.998Z,18.59
2023-05-21T12:25:14.171Z,18.47
2023-05-21T12:27:45.231Z,18.38
2023-05-21T12:30:13.908Z,18.32
2023-05-21T12:32:44.322Z,18.36
2023-05-21T12:35:24.273Z,18.43
2023-05-21T12:37:53.306Z,18.44
2023-05-21T12:40:22.479Z,18.42
2023-05-21T12:42:51.776Z,18.43
2023-05-21T12:45:22.811Z,18.50
2023-05-21T12:47:56.509Z,18.61
2023-05-21T12:50:26.483Z,18.68
2023-05-21T12:53:00.133Z,18.69
2023-05-21T12:55:28.696Z,18.75
2023-05-21T12:58:05.188Z,18.80
2023-05-21T13:00:33.893Z,18.72
2023-05-21T13:03:02.338Z,18.68
2023-05-21T13:05:32.563Z,18.70
2023-05-21T13:08:00.817Z,18.85
2023-05-21T13:10:29.225Z,18.88
2023-05-21T13:12:57.536Z,18.78
2023-05-21T13:15:25.737Z,18.80
2023-05-21T13:17:56.550Z,18.83
2023-05-21T13:20:27.793Z,18.79
2023-05-21T13:22:57.549Z,18.78
2023-05-21T13:25:29.139Z,18.76
2023-05-21T13:27:58.674Z,18.83
2023-05-21T13:30:27.062Z,18.81
2023-05-21T13:32:55.755Z,18.84
2023-05-21T13:35:25.265Z,18.85
2023-05-21T13:37:53.463Z,18.88
2023-05-21T13:40:23.998Z,18.82
2023-05-21T13:42:52.372Z,18.85
2023-05-21T13:45:21.817Z,18.96
2023-05-21T13:47:50.240Z,19.06
2023-05-21T13:50:18.658Z,19.07
2023-05-21T13:52:47.286Z,18.98
2023-05-21T13:55:16.165Z,18.82
2023-05-21T13:57:46.998Z,18.82
2023-05-21T14:00:16.328Z,18.93
2023-05-21T14:02:45.329Z,19.10
2023-05-21T14:05:13.913Z,19.19
2023-05-21T14:07:42.986Z,19.12
2023-05-21T14:10:11.942Z,19.03
2023-05-21T14:12:40.884Z,18.98
2023-05-21T14:15:12.099Z,18.92
2023-05-21T14:17:42.507Z,18.83
2023-05-21T14:20:12.130Z,18.73
2023-05-21T14:22:40.374Z,18.63
2023-05-21T14:25:09.034Z,18.65
2023-05-21T14:27:38.610Z,18.59
2023-05-21T14:30:08.008Z,18.68
2023-05-21T14:32:37.753Z,18.71
2023-05-21T14:35:06.959Z,18.70
2023-05-21T14:37:35.182Z,18.74
2023-05-21T14:40:05.473Z,18.75
2023-05-21T14:42:33.739Z,18.69
2023-05-21T14:45:17.566Z,18.70
2023-05-21T14:47:50.104Z,18.70
2023-05-21T14:50:20.314Z,18.65
2023-05-21T14:52:48.543Z,18.71
2023-05-21T14:55:18.615Z,18.78
2023-05-21T14:57:46.948Z,18.87
2023-05-21T15:00:15.699Z,18.91
2023-05-21T15:02:44.144Z,18.84
2023-05-21T15:05:13.969Z,18.78
2023-05-21T15:07:42.271Z,18.74
2023-05-21T15:10:11.053Z,18.68
2023-05-21T15:12:39.513Z,18.61
2023-05-21T15:15:08.495Z,18.54
2023-05-21T15:17:37.308Z,18.52
2023-05-21T15:20:06.448Z,18.54
2023-05-21T15:22:36.339Z,18.55
2023-05-21T15:25:05.843Z,18.51
2023-05-21T15:27:34.279Z,18.46
2023-05-21T15:30:03.348Z,18.53
2023-05-21T15:32:32.159Z,18.60
2023-05-21T15:35:00.637Z,18.68
2023-05-21T15:37:32.244Z,18.70
2023-05-21T15:40:02.181Z,18.75
2023-05-21T15:42:31.956Z,18.77
2023-05-21T15:45:00.313Z,18.77
2023-05-21T15:47:28.853Z,18.73
2023-05-21T15:49:58.870Z,18.71
2023-05-21T15:52:27.320Z,18.65
2023-05-21T15:54:55.790Z,18.64
2023-05-21T15:57:25.463Z,18.65
2023-05-21T15:59:53.576Z,18.62
2023-05-21T16:02:21.998Z,18.65
2023-05-21T16:04:52.184Z,18.68
2023-05-21T16:07:21.105Z,18.73
2023-05-21T16:09:49.302Z,18.54
2023-05-21T16:12:17.687Z,18.44
2023-05-21T16:14:50.042Z,18.29
2023-05-21T16:17:18.555Z,18.24
2023-05-21T16:19:47.610Z,18.13
2023-05-21T16:22:16.190Z,18.10
2023-05-21T16:24:44.312Z,18.17
2023-05-21T16:27:12.540Z,18.14
2023-05-21T16:29:41.100Z,18.13
2023-05-21T16:32:13.063Z,18.14
2023-05-21T16:34:41.552Z,18.17
2023-05-21T16:37:09.992Z,18.22
2023-05-21T16:39:38.615Z,18.22
2023-05-21T16:42:07.314Z,18.15
2023-05-21T16:44:37.119Z,18.08
2023-05-21T16:47:05.927Z,18.07
2023-05-21T16:49:35.538Z,17.99
2023-05-21T16:52:04.080Z,17.97
2023-05-21T16:54:32.303Z,17.96
2023-05-21T16:57:00.702Z,17.96
2023-05-21T16:59:29.551Z,18.02
2023-05-21T17:01:57.849Z,17.94
2023-05-21T17:04:26.181Z,17.83
2023-05-21T17:06:55.834Z,17.83
2023-05-21T17:09:24.163Z,17.81
2023-05-21T17:11:52.339Z,17.76
2023-05-21T17:14:33.206Z,17.70
2023-05-21T17:17:02.292Z,17.65
2023-05-21T17:19:30.877Z,17.59
2023-05-21T17:22:00.763Z,17.57
2023-05-21T17:24:29.012Z,17.59
2023-05-21T17:26:57.179Z,17.49
2023-05-21T17:29:25.399Z,17.43
2023-05-21T17:31:53.962Z,17.34
2023-05-21T17:34:24.658Z,17.19
2023-05-21T17:36:52.965Z,17.16
2023-05-21T17:39:22.777Z,17.14
2023-05-21T17:41:51.285Z,17.14
2023-05-21T17:44:20.790Z,17.08
2023-05-21T17:46:50.672Z,17.06
2023-05-21T17:49:19.447Z,16.99
2023-05-21T17:51:48.153Z,16.93
2023-05-21T17:54:16.596Z,16.97
2023-05-21T17:56:46.639Z,16.92
2023-05-21T17:59:16.073Z,16.92
2023-05-21T18:01:44.275Z,16.88
2023-05-21T18:04:13.408Z,16.88
2023-05-21T18:06:41.730Z,16.85
2023-05-21T18:09:10.679Z,16.85
2023-05-21T18:11:38.993Z,16.83
2023-05-21T18:14:08.570Z,16.85
2023-05-21T18:16:36.802Z,16.85
2023-05-21T18:19:06.832Z,16.83
2023-05-21T18:21:35.681Z,16.78
2023-05-21T18:24:04.243Z,16.79
2023-05-21T18:26:32.459Z,16.78
2023-05-21T18:29:01.234Z,16.80
2023-05-21T18:31:30.920Z,16.80
2023-05-21T18:33:59.382Z,16.79
2023-05-21T18:36:27.796Z,16.80
2023-05-21T18:38:56.031Z,16.80
2023-05-21T18:41:24.918Z,16.76
2023-05-21T18:43:53.254Z,16.72
2023-05-21T18:46:21.838Z,16.65
2023-05-21T18:48:51.654Z,16.61
2023-05-21T18:51:20.050Z,16.56
2023-05-21T18:53:49.152Z,16.58
2023-05-21T18:56:17.382Z,16.54
2023-05-21T18:58:46.027Z,16.51
2023-05-21T19:01:14.436Z,16.46
2023-05-21T19:03:42.796Z,16.44
2023-05-21T19:06:12.482Z,16.38
2023-05-21T19:08:41.450Z,16.33
2023-05-21T19:11:09.736Z,16.32
2023-05-21T19:13:38.237Z,16.31
2023-05-21T19:16:11.074Z,16.26
2023-05-21T19:18:42.819Z,16.25
2023-05-21T19:21:13.532Z,16.34
2023-05-21T19:23:51.770Z,16.32
2023-05-21T19:26:21.951Z,16.33
2023-05-21T19:28:53.452Z,16.38
2023-05-21T19:31:22.856Z,16.36
2023-05-21T19:33:51.346Z,16.38
2023-05-21T19:36:22.100Z,16.38
2023-05-21T19:38:51.118Z,16.37
2023-05-21T19:41:20.205Z,16.39
2023-05-21T19:43:48.421Z,16.41
2023-05-21T19:46:20.020Z,16.42
2023-05-21T19:48:49.071Z,16.41
2023-05-21T19:51:18.064Z,16.39
2023-05-21T19:53:47.778Z,16.40
2023-05-21T19:56:16.255Z,16.35
2023-05-21T19:58:47.266Z,16.34
2023-05-21T20:01:16.120Z,16.35
2023-05-21T20:03:45.653Z,16.33
2023-05-21T20:06:15.561Z,16.32
2023-05-21T20:08:43.848Z,16.27
2023-05-21T20:11:13.515Z,16.23
2023-05-21T20:13:42.554Z,16.21
2023-05-21T20:16:12.818Z,16.20
2023-05-21T20:18:41.861Z,16.19
2023-05-21T20:21:10.692Z,16.16
2023-05-21T20:23:38.902Z,16.15
2023-05-21T20:26:07.331Z,16.13
2023-05-21T20:28:37.511Z,16.09
2023-05-21T20:31:06.239Z,16.06
2023-05-21T20:33:43.475Z,16.04
2023-05-21T20:36:13.444Z,16.01
2023-05-21T20:38:42.231Z,16.02
2023-05-21T20:41:10.639Z,16.03
2023-05-21T20:43:40.465Z,16.04
2023-05-21T20:46:08.733Z,16.03
2023-05-21T20:48:37.937Z,16.04
2023-05-21T20:51:06.953Z,16.01
2023-05-21T20:53:35.342Z,16.00
2023-05-21T20:56:08.376Z,16.01
2023-05-21T20:58:36.637Z,16.01
2023-05-21T21:01:06.268Z,16.00
2023-05-21T21:03:35.181Z,16.02
2023-05-21T21:06:04.488Z,16.02
2023-05-21T21:08:34.783Z,16.03
2023-05-21T21:11:03.001Z,16.04
2023-05-21T21:13:31.267Z,16.04
2023-05-21T21:15:59.518Z,16.04
2023-05-21T21:18:29.198Z,16.02
2023-05-21T21:20:57.531Z,16.04
2023-05-21T21:23:26.341Z,16.02
2023-05-21T21:25:54.661Z,16.01
2023-05-21T21:28:22.904Z,16.00
2023-05-21T21:30:51.217Z,15.99
2023-05-21T21:33:19.471Z,16.00
2023-05-21T21:35:49.162Z,15.99
2023-05-21T21:38:17.481Z,15.98
2023-05-21T21:40:45.798Z,15.98
2023-05-21T21:43:14.142Z,16.00
2023-05-21T21:45:42.561Z,16.00
2023-05-21T21:48:11.687Z,15.98
2023-05-21T21:50:40.568Z,15.99
2023-05-21T21:53:12.751Z,15.98
2023-05-21T21:55:40.959Z,15.98
2023-05-21T21:58:09.264Z,15.97
2023-05-21T22:00:37.972Z,15.98
2023-05-21T22:03:06.417Z,15.97
2023-05-21T22:05:34.555Z,15.98
2023-05-21T22:08:04.143Z,15.99
2023-05-21T22:10:38.281Z,16.02
2023-05-21T22:13:06.824Z,16.00
2023-05-21T22:15:35.233Z,16.01
2023-05-21T22:18:03.566Z,16.01
2023-05-21T22:20:33.200Z,16.02
2023-05-21T22:23:01.812Z,16.03
2023-05-21T22:25:30.092Z,16.02
2023-05-21T22:27:59.703Z,16.00
2023-05-21T22:30:27.969Z,15.98
2023-05-21T22:32:56.883Z,15.97
2023-05-21T22:35:25.433Z,15.97
2023-05-21T22:37:53.709Z,15.96
2023-05-21T22:40:21.858Z,15.98
2023-05-21T22:42:50.088Z,15.96
2023-05-21T22:45:21.761Z,15.94
2023-05-21T22:47:51.987Z,15.92
2023-05-21T22:50:20.256Z,15.91
2023-05-21T22:52:48.546Z,15.92
2023-05-21T22:55:17.261Z,15.92
2023-05-21T22:57:46.020Z,15.92
2023-05-21T23:00:14.703Z,15.91
2023-05-21T23:02:44.298Z,15.91
2023-05-21T23:05:12.564Z,15.91
2023-05-21T23:07:41.501Z,15.88
2023-05-21T23:10:10.514Z,15.88
2023-05-21T23:12:38.890Z,15.87
2023-05-21T23:15:07.948Z,15.86
2023-05-21T23:17:36.167Z,15.87
2023-05-21T23:20:07.374Z,15.87
2023-05-21T23:22:36.166Z,15.85
2023-05-21T23:25:05.088Z,15.82
2023-05-21T23:27:33.424Z,15.79
2023-05-21T23:30:01.758Z,15.77
2023-05-21T23:32:30.182Z,15.72
2023-05-21T23:34:58.436Z,15.70
2023-05-21T23:37:28.100Z,15.69
2023-05-21T23:39:56.427Z,15.69
2023-05-21T23:42:24.773Z,15.66
2023-05-21T23:44:53.036Z,15.65
2023-05-21T23:47:21.228Z,15.59
2023-05-21T23:49:49.441Z,15.55
2023-05-21T23:52:18.452Z,15.55
2023-05-21T23:54:48.262Z,15.55
2023-05-21T23:57:16.754Z,15.57
2023-05-21T23:59:45.031Z,15.55
